Lassen Volcanic National Par, California
Current Conditions -  °F | °C
As of 12:38 AM on Friday 19 Dec 2014 (Local Time) from KRBL Reporting Station
Light Rain Light Rain  
Wind Chill: 52°   Ceiling: 4200
Heat Index: 52°   Visibility: 10mi
Dew Point: 49°   Wind: 18mph
Humidity: 89%   Direction: 150°SSE
Pressure: 30.1"   Gusts: NA
Location:  40.3399°N, 121.499°W
Report Text: KRBL 190838Z AUTO 15016KT 10SM -RA FEW009 SCT023 OVC042 11/09 A3010 RMK AO2 P0000 T01110094
Loading
Personal Weather Stations






























Interactive Weather Map New forecast layout! Learn more

10-Day Weather Forecast

Advertisements
Track Severe Weather on mobile